Time;durP1;ratioP1;P1;durP2;ratioP2;P2;SDS_P1;SDS_P2;PMS_P1;PMS_P2;Temp;Humidity;BMP_temperature;BMP_pressure;BME280_temperature;BME280_humidity;BME280_pressure;Samples;Min_cycle;Max_cycle;Signal;HPM_P1;HPM_P2
2022/08/13 00:00:14;;;;;;;;;35.33;33.67;;;;;24.61;57.47;101330.52;110052;1267;19429;-49
2022/08/13 00:03:01;;;;;;;;;39.00;33.00;;;;;24.63;57.30;101325.19;109978;1268;21909;-49
2022/08/13 00:05:29;;;;;;;;;36.67;30.67;;;;;24.58;57.29;101323.80;109891;1267;18629;-48
2022/08/13 00:07:56;;;;;;;;;34.50;31.00;;;;;24.57;57.21;101326.27;110207;1267;18675;-48
2022/08/13 00:10:26;;;;;;;;;33.00;32.00;;;;;24.61;57.20;101324.45;109598;1270;18333;-48
2022/08/13 00:13:03;;;;;;;;;32.00;31.50;;;;;24.68;56.93;101322.90;110057;1267;33855;-49
2022/08/13 00:15:31;;;;;;;;;34.00;28.67;;;;;24.69;56.74;101323.51;110044;1268;22009;-48
2022/08/13 00:17:58;;;;;;;;;33.33;30.00;;;;;24.73;56.86;101318.58;110052;1268;18316;-48
2022/08/13 00:20:25;;;;;;;;;32.00;30.67;;;;;24.65;56.82;101316.19;110070;1268;19645;-49
2022/08/13 00:22:54;;;;;;;;;34.33;32.00;;;;;24.60;56.94;101311.14;110205;1268;19318;-49
2022/08/13 00:25:23;;;;;;;;;29.67;28.33;;;;;24.57;57.03;101309.08;110103;1267;18489;-48
2022/08/13 00:27:56;;;;;;;;;31.33;30.67;;;;;24.58;56.93;101311.92;110053;1268;18963;-49
2022/08/13 00:30:24;;;;;;;;;33.00;31.00;;;;;24.55;57.02;101312.25;110170;1268;18804;-49
2022/08/13 00:32:51;;;;;;;;;33.00;31.00;;;;;24.58;56.88;101314.80;110159;1268;22120;-49
2022/08/13 00:35:18;;;;;;;;;31.67;29.67;;;;;24.62;56.67;101314.92;110089;1268;18861;-49
2022/08/13 00:37:46;;;;;;;;;36.00;33.00;;;;;24.62;56.38;101312.11;109807;1268;18692;-48
2022/08/13 00:40:17;;;;;;;;;27.00;27.00;;;;;24.67;56.17;101310.23;109937;1267;18335;-49
2022/08/13 00:42:44;;;;;;;;;26.67;25.33;;;;;24.50;56.29;101304.97;109916;1267;18667;-51
2022/08/13 00:45:12;;;;;;;;;30.50;29.00;;;;;24.47;56.47;101306.10;110022;1267;19300;-48
2022/08/13 00:50:26;;;;;;;;;29.00;27.00;;;;;24.51;56.10;101295.62;109614;1268;18779;-48
2022/08/13 00:52:54;;;;;;;;;30.67;27.00;;;;;24.56;55.95;101294.93;110089;1268;18763;-49
2022/08/13 00:55:23;;;;;;;;;32.00;28.00;;;;;24.59;55.84;101286.33;110096;1267;18230;-49
2022/08/13 00:57:50;;;;;;;;;30.33;28.00;;;;;24.60;55.91;101286.02;110061;1268;18706;-48
2022/08/13 01:00:17;;;;;;;;;30.33;29.33;;;;;24.58;55.78;101281.69;110033;1268;18826;-47
2022/08/13 01:02:44;;;;;;;;;31.00;28.00;;;;;24.59;55.77;101274.83;109984;1268;21596;-49
2022/08/13 01:05:12;;;;;;;;;31.33;29.00;;;;;24.63;55.72;101272.89;110012;1267;22343;-51
2022/08/13 01:07:41;;;;;;;;;27.67;26.67;;;;;24.61;55.61;101273.88;110071;1267;18906;-49
2022/08/13 01:10:08;;;;;;;;;31.33;30.33;;;;;24.54;55.66;101269.98;110123;1267;18737;-48
2022/08/13 01:12:37;;;;;;;;;30.00;27.00;;;;;24.56;55.58;101264.67;110134;1268;19043;-48
2022/08/13 01:15:05;;;;;;;;;27.67;26.00;;;;;24.60;55.45;101256.79;110072;1268;18745;-51
2022/08/13 01:17:32;;;;;;;;;26.00;24.00;;;;;24.57;55.41;101259.75;110072;1268;19398;-49
2022/08/13 01:19:59;;;;;;;;;26.33;25.33;;;;;24.57;55.51;101255.78;110161;1267;18735;-53
2022/08/13 01:22:27;;;;;;;;;23.50;22.50;;;;;24.59;55.37;101255.38;110132;1268;19183;-51
2022/08/13 01:24:55;;;;;;;;;26.33;24.00;;;;;24.57;55.15;101253.79;110069;1267;18247;-48
2022/08/13 01:27:23;;;;;;;;;23.33;20.33;;;;;24.49;55.27;101251.27;110079;1267;18824;-53
2022/08/13 01:29:50;;;;;;;;;25.00;21.00;;;;;24.50;55.18;101251.67;109951;1268;20618;-50
2022/08/13 01:32:21;;;;;;;;;20.33;20.33;;;;;24.52;55.21;101248.83;109996;1268;18238;-51
2022/08/13 01:34:50;;;;;;;;;21.00;20.00;;;;;24.49;55.22;101239.61;110155;1267;18774;-48
2022/08/13 01:37:17;;;;;;;;;24.33;22.00;;;;;24.45;55.25;101239.00;110002;1268;18843;-50
2022/08/13 01:39:45;;;;;;;;;24.67;22.00;;;;;24.41;55.26;101233.77;110077;1268;18201;-48
2022/08/13 01:42:13;;;;;;;;;26.00;24.00;;;;;24.49;55.21;101230.13;110061;1267;21705;-48
2022/08/13 01:44:41;;;;;;;;;26.33;25.67;;;;;24.51;55.17;101223.23;110061;1268;22304;-48
2022/08/13 01:52:38;;;;;;;;;29.33;27.33;;;;;24.49;55.34;101217.64;110142;1267;19634;-48
2022/08/13 01:55:05;;;;;;;;;30.00;28.00;;;;;24.50;55.13;101220.27;110056;1268;18528;-48
2022/08/13 01:57:33;;;;;;;;;28.67;26.33;;;;;24.51;55.15;101218.14;110050;1268;20283;-48
2022/08/13 02:00:00;;;;;;;;;26.00;22.50;;;;;24.56;55.03;101218.39;110065;1268;18677;-49
2022/08/13 02:02:28;;;;;;;;;22.33;21.67;;;;;24.56;55.06;101219.09;110069;1268;18382;-49
2022/08/13 02:04:56;;;;;;;;;26.00;25.67;;;;;24.56;55.16;101218.59;110210;1267;18694;-50
2022/08/13 02:07:23;;;;;;;;;25.00;22.00;;;;;24.56;55.20;101221.35;110158;1267;19079;-48
2022/08/13 02:09:52;;;;;;;;;23.50;21.50;;;;;24.57;55.42;101221.38;110079;1268;18430;-48
2022/08/13 02:12:19;;;;;;;;;22.00;22.00;;;;;24.45;55.55;101216.45;110055;1268;18804;-49
2022/08/13 02:14:46;;;;;;;;;25.00;22.00;;;;;24.37;55.95;101214.27;110048;1268;21609;-48
2022/08/13 02:17:27;;;;;;;;;25.00;20.50;;;;;24.30;56.01;101209.55;110104;1267;21342;-49
2022/08/13 02:19:54;;;;;;;;;21.50;21.50;;;;;24.37;55.78;101208.58;110095;1268;19056;-48
2022/08/13 02:22:22;;;;;;;;;22.67;22.00;;;;;24.45;55.55;101210.97;110058;1267;19202;-49
2022/08/13 02:24:49;;;;;;;;;21.67;21.33;;;;;24.32;56.07;101214.44;110015;1268;18286;-50
2022/08/13 02:27:20;;;;;;;;;21.33;21.00;;;;;24.28;56.14;101211.45;110134;1268;18863;-47
2022/08/13 02:29:47;;;;;;;;;22.00;21.67;;;;;24.30;55.89;101214.14;110149;1267;19124;-50
2022/08/13 02:32:16;;;;;;;;;20.00;19.00;;;;;24.27;56.13;101205.74;110112;1267;21956;-50
2022/08/13 02:34:44;;;;;;;;;20.00;19.00;;;;;24.37;55.73;101202.98;110162;1268;18561;-49
2022/08/13 02:37:11;;;;;;;;;24.00;21.00;;;;;24.43;55.52;101202.33;110050;1268;20241;-48
2022/08/13 02:39:38;;;;;;;;;23.00;21.67;;;;;24.46;55.47;101202.51;109958;1268;18182;-50
2022/08/13 02:42:06;;;;;;;;;19.00;18.00;;;;;24.47;55.24;101203.95;110022;1268;19552;-49
2022/08/13 02:44:33;;;;;;;;;21.00;20.00;;;;;24.50;55.32;101200.51;110078;1268;18711;-48
2022/08/13 02:47:01;;;;;;;;;21.00;20.33;;;;;24.51;55.19;101202.54;110171;1268;18431;-50
2022/08/13 02:49:28;;;;;;;;;22.00;21.00;;;;;24.46;55.27;101207.16;110110;1267;18773;-48
2022/08/13 02:51:55;;;;;;;;;24.00;22.00;;;;;24.37;55.56;101207.75;110054;1268;19018;-49
2022/08/13 02:54:23;;;;;;;;;22.00;21.00;;;;;24.34;55.76;101203.64;110080;1268;22059;-48
2022/08/13 02:56:50;;;;;;;;;24.33;22.00;;;;;24.22;55.94;101210.91;110060;1268;19700;-49
2022/08/13 02:59:18;;;;;;;;;24.00;21.00;;;;;24.23;55.87;101213.63;110100;1268;18741;-48
2022/08/13 03:01:45;;;;;;;;;20.50;20.50;;;;;24.30;55.75;101212.52;109620;1270;20068;-49
2022/08/13 03:04:15;;;;;;;;;19.50;19.00;;;;;24.34;55.66;101211.61;110059;1267;20195;-50
2022/08/13 03:06:44;;;;;;;;;20.00;19.00;;;;;24.28;55.69;101211.84;110156;1268;18769;-48
2022/08/13 03:09:12;;;;;;;;;20.00;20.00;;;;;24.21;55.91;101210.81;110128;1267;18263;-48
2022/08/13 03:11:39;;;;;;;;;20.00;19.33;;;;;24.22;55.83;101213.61;110064;1268;20578;-47
2022/08/13 03:14:06;;;;;;;;;18.33;18.33;;;;;24.27;55.75;101213.81;110038;1268;18974;-47
2022/08/13 03:16:34;;;;;;;;;18.00;18.00;;;;;24.28;55.78;101212.14;110074;1268;18357;-48
2022/08/13 03:19:01;;;;;;;;;19.00;19.00;;;;;24.16;56.01;101207.12;110049;1268;18926;-46
2022/08/13 03:21:29;;;;;;;;;22.00;19.00;;;;;24.20;55.85;101201.66;110022;1268;18728;-47
2022/08/13 03:23:56;;;;;;;;;20.50;19.00;;;;;24.17;56.00;101199.25;110096;1267;18236;-47
2022/08/13 03:26:24;;;;;;;;;21.00;19.33;;;;;24.09;56.04;101203.14;110079;1268;18806;-48
2022/08/13 03:28:52;;;;;;;;;20.33;19.00;;;;;24.07;56.08;101202.10;110159;1268;18752;-49
2022/08/13 03:31:19;;;;;;;;;19.00;19.00;;;;;24.08;56.21;101206.54;110056;1267;18429;-49
2022/08/13 03:33:47;;;;;;;;;23.33;21.00;;;;;24.09;56.08;101214.67;110047;1267;18877;-48
2022/08/13 03:36:14;;;;;;;;;19.00;19.00;;;;;24.17;55.90;101211.33;110037;1268;21367;-44
2022/08/13 03:38:42;;;;;;;;;21.67;20.00;;;;;24.19;55.64;101212.65;110028;1268;18370;-47
2022/08/13 03:41:12;;;;;;;;;21.00;19.00;;;;;24.00;56.24;101214.62;110113;1267;20458;-47
2022/08/13 03:43:42;;;;;;;;;19.00;19.00;;;;;23.87;56.43;101216.61;110146;1267;20119;-51
2022/08/13 03:46:09;;;;;;;;;19.67;19.33;;;;;23.91;56.75;101220.88;110152;1268;18430;-49
2022/08/13 03:48:36;;;;;;;;;17.67;17.67;;;;;23.98;56.45;101219.61;110087;1268;18751;-49
2022/08/13 03:51:04;;;;;;;;;21.67;20.33;;;;;24.03;56.34;101220.19;110056;1267;18937;-48
2022/08/13 03:53:31;;;;;;;;;27.00;24.00;;;;;23.96;56.49;101223.16;110052;1267;18244;-48
2022/08/13 03:55:59;;;;;;;;;25.50;23.50;;;;;23.86;56.69;101224.67;110049;1268;18850;-48
2022/08/13 03:58:26;;;;;;;;;23.00;22.33;;;;;23.95;56.52;101226.25;110047;1268;18852;-48
2022/08/13 04:00:53;;;;;;;;;25.00;23.50;;;;;23.96;56.51;101224.92;109993;1268;18841;-49
2022/08/13 04:03:20;;;;;;;;;24.00;20.33;;;;;24.07;56.21;101226.44;110030;1268;22036;-49
2022/08/13 04:05:48;;;;;;;;;22.00;21.33;;;;;24.09;56.06;101234.23;110055;1267;18806;-49
2022/08/13 04:08:15;;;;;;;;;23.67;23.00;;;;;23.93;56.37;101231.65;110151;1268;19197;-48
2022/08/13 04:10:43;;;;;;;;;24.50;22.00;;;;;23.95;56.37;101224.63;109946;1268;21506;-52
2022/08/13 04:13:11;;;;;;;;;23.00;21.33;;;;;23.92;56.50;101222.92;109992;1267;20344;-48
2022/08/13 04:15:42;;;;;;;;;20.00;19.00;;;;;23.95;56.57;101220.75;110036;1268;19929;-49
2022/08/13 04:18:09;;;;;;;;;22.00;19.00;;;;;24.00;56.34;101220.23;110008;1267;18871;-49
2022/08/13 04:20:37;;;;;;;;;21.33;18.33;;;;;24.07;56.10;101213.47;110050;1268;18738;-48
2022/08/13 04:23:09;;;;;;;;;21.00;20.00;;;;;24.07;56.20;101211.29;110196;1268;18218;-47
2022/08/13 04:25:36;;;;;;;;;19.50;19.00;;;;;24.15;55.78;101206.39;110180;1267;18700;-50
2022/08/13 04:28:04;;;;;;;;;22.67;21.00;;;;;24.12;55.83;101205.84;110119;1268;18820;-48
2022/08/13 04:30:34;;;;;;;;;19.33;18.33;;;;;24.15;55.66;101203.72;110051;1268;19125;-49
2022/08/13 04:33:03;;;;;;;;;22.50;20.50;;;;;24.19;55.52;101203.99;110058;1268;18916;-47
2022/08/13 04:35:30;;;;;;;;;22.67;20.00;;;;;24.12;55.78;101201.03;110032;1268;18804;-48
2022/08/13 04:37:58;;;;;;;;;25.00;23.00;;;;;24.09;55.84;101202.77;110164;1268;19667;-48
2022/08/13 04:40:25;;;;;;;;;23.00;23.00;;;;;24.14;55.58;101197.79;110017;1268;19631;-48
2022/08/13 04:42:53;;;;;;;;;22.00;22.00;;;;;24.08;55.62;101200.73;110086;1268;18868;-46
2022/08/13 04:45:20;;;;;;;;;25.00;21.33;;;;;24.03;55.84;101198.27;110066;1268;21980;-48
2022/08/13 04:47:48;;;;;;;;;19.33;19.33;;;;;24.11;55.57;101197.23;110035;1268;22833;-51
2022/08/13 04:50:15;;;;;;;;;19.50;19.00;;;;;24.15;55.42;101200.06;110148;1267;19295;-50
2022/08/13 04:52:43;;;;;;;;;21.00;19.00;;;;;24.19;55.51;101205.05;110146;1268;18260;-51
2022/08/13 04:55:12;;;;;;;;;22.00;21.00;;;;;24.21;55.38;101208.62;110018;1267;18893;-51
2022/08/13 04:57:41;;;;;;;;;25.00;23.00;;;;;24.15;55.60;101209.94;110142;1267;18788;-49
2022/08/13 05:00:08;;;;;;;;;26.67;25.00;;;;;24.16;55.55;101213.58;110151;1268;18352;-50
2022/08/13 05:02:35;;;;;;;;;23.00;22.67;;;;;23.90;56.23;101212.98;109674;1268;22707;-49
2022/08/13 05:05:03;;;;;;;;;24.00;22.67;;;;;23.76;56.64;101213.79;110189;1267;19472;-51
2022/08/13 05:07:30;;;;;;;;;24.00;23.67;;;;;23.89;56.38;101213.48;110150;1267;18376;-49
2022/08/13 05:09:58;;;;;;;;;23.67;22.67;;;;;23.98;56.18;101214.45;110155;1267;18962;-48
2022/08/13 05:12:25;;;;;;;;;24.00;23.33;;;;;23.89;56.48;101213.35;110121;1267;22174;-49
2022/08/13 05:14:52;;;;;;;;;20.00;20.00;;;;;23.96;56.34;101215.77;110139;1267;19131;-48
2022/08/13 05:17:19;;;;;;;;;23.00;22.67;;;;;23.96;56.40;101219.23;110025;1267;18888;-47
2022/08/13 05:19:47;;;;;;;;;26.67;24.00;;;;;23.82;56.68;101222.80;110067;1268;18776;-50
2022/08/13 05:22:15;;;;;;;;;27.50;27.00;;;;;23.85;56.65;101220.41;110019;1268;18222;-51
2022/08/13 05:24:42;;;;;;;;;24.00;23.33;;;;;23.87;56.65;101219.38;110106;1268;18692;-48
2022/08/13 05:27:13;;;;;;;;;26.50;25.00;;;;;23.76;56.86;101224.14;110089;1267;18822;-44
2022/08/13 05:29:41;;;;;;;;;23.67;23.00;;;;;23.92;56.49;101224.23;110142;1268;18420;-49
2022/08/13 05:32:10;;;;;;;;;23.00;23.00;;;;;24.00;56.35;101220.66;110022;1268;18691;-51
2022/08/13 05:34:38;;;;;;;;;30.50;28.50;;;;;24.05;56.18;101218.27;110048;1267;18733;-51
2022/08/13 05:37:06;;;;;;;;;35.67;33.00;;;;;24.07;56.27;101216.71;110100;1268;22145;-49
2022/08/13 05:39:33;;;;;;;;;38.00;35.00;;;;;23.97;56.34;101214.12;110121;1268;18843;-48
2022/08/13 05:42:00;;;;;;;;;27.67;26.00;;;;;23.96;56.47;101218.02;110110;1268;18696;-48
2022/08/13 05:44:28;;;;;;;;;27.67;25.00;;;;;23.85;56.69;101220.36;110063;1267;19356;-48
2022/08/13 05:46:56;;;;;;;;;25.00;25.00;;;;;23.92;56.64;101217.36;110164;1267;18785;-48
2022/08/13 05:49:23;;;;;;;;;23.50;22.50;;;;;24.05;56.31;101215.58;109994;1267;19381;-49
2022/08/13 05:51:51;;;;;;;;;24.67;22.00;;;;;23.98;56.42;101208.88;110155;1268;21895;-49
2022/08/13 05:54:19;;;;;;;;;29.33;26.00;;;;;24.10;56.29;101208.16;109944;1268;18729;-47
2022/08/13 05:56:46;;;;;;;;;25.00;24.00;;;;;24.15;56.15;101206.63;109827;1268;20179;-48
2022/08/13 06:04:40;;;;;;;;;21.00;20.67;;;;;24.22;55.86;101204.85;109749;1267;19055;-44
2022/08/13 06:07:09;;;;;;;;;25.67;25.00;;;;;24.32;55.77;101204.70;109748;1268;18186;-48
2022/08/13 06:09:36;;;;;;;;;28.50;25.00;;;;;24.36;55.58;101204.44;109808;1268;30715;-48
2022/08/13 06:12:03;;;;;;;;;23.00;21.00;;;;;24.33;55.79;101201.97;110086;1268;18840;-49
2022/08/13 06:14:34;;;;;;;;;24.67;23.00;;;;;24.21;56.03;101206.89;110152;1267;18336;-50
2022/08/13 06:17:02;;;;;;;;;24.50;24.00;;;;;24.19;56.14;101201.42;110176;1267;18641;-48
2022/08/13 06:19:29;;;;;;;;;33.67;30.00;;;;;24.15;56.16;101205.41;110136;1268;18766;-49
2022/08/13 06:21:59;;;;;;;;;29.00;26.00;;;;;24.01;56.22;101207.42;110133;1268;18184;-48
2022/08/13 06:24:27;;;;;;;;;30.00;26.33;;;;;23.79;56.92;101211.77;110139;1267;18837;-49
2022/08/13 06:26:55;;;;;;;;;26.00;24.00;;;;;23.84;57.02;101206.70;110077;1267;18983;-48
2022/08/13 06:29:23;;;;;;;;;25.00;24.00;;;;;23.91;56.87;101206.35;110113;1267;18441;-47
2022/08/13 06:31:50;;;;;;;;;46.00;39.00;;;;;23.87;57.06;101205.48;110144;1268;19132;-50
2022/08/13 06:34:18;;;;;;;;;35.00;34.00;;;;;24.00;56.87;101201.01;110091;1267;19750;-50
2022/08/13 06:36:45;;;;;;;;;30.50;28.50;;;;;24.05;56.74;101198.70;110064;1267;18204;-49
2022/08/13 06:39:13;;;;;;;;;26.00;23.00;;;;;24.05;56.85;101197.67;110050;1268;18770;-49
2022/08/13 06:41:42;;;;;;;;;24.00;22.67;;;;;24.06;56.58;101196.98;109975;1267;20204;-48
2022/08/13 06:44:10;;;;;;;;;26.33;25.00;;;;;24.07;56.68;101194.97;110057;1267;18236;-51
2022/08/13 06:46:38;;;;;;;;;23.00;23.00;;;;;24.12;56.74;101193.44;110024;1267;18720;-48
2022/08/13 06:49:05;;;;;;;;;23.00;22.33;;;;;24.23;56.50;101192.88;110040;1268;22397;-50
2022/08/13 06:51:32;;;;;;;;;21.00;20.00;;;;;24.30;56.23;101185.02;109939;1268;21184;-53
2022/08/13 06:54:00;;;;;;;;;22.00;21.67;;;;;24.41;56.21;101186.30;110114;1267;19017;-48
2022/08/13 06:56:28;;;;;;;;;23.00;22.67;;;;;24.44;56.51;101189.33;110057;1268;18840;-47
2022/08/13 06:58:56;;;;;;;;;23.33;21.00;;;;;24.52;56.21;101192.04;110072;1267;19307;-49
2022/08/13 07:01:24;;;;;;;;;25.00;24.00;;;;;24.58;56.15;101189.80;109990;1267;18774;-48
2022/08/13 07:03:51;;;;;;;;;19.00;18.67;;;;;24.69;55.85;101192.67;110136;1268;18765;-49
2022/08/13 07:06:18;;;;;;;;;21.33;20.00;;;;;24.81;55.34;101189.15;110107;1267;18448;-48
2022/08/13 07:08:45;;;;;;;;;20.00;17.67;;;;;24.87;55.24;101186.61;110055;1267;18850;-48
2022/08/13 07:11:24;;;;;;;;;19.00;19.00;;;;;24.93;55.06;101184.56;110059;1268;21462;-48
2022/08/13 07:13:52;;;;;;;;;20.00;19.67;;;;;24.93;54.74;101183.22;109910;1268;18254;-49
2022/08/13 07:16:21;;;;;;;;;19.00;18.00;;;;;24.89;54.67;101181.20;109904;1268;18724;-49
2022/08/13 07:18:49;;;;;;;;;21.00;21.00;;;;;24.98;54.61;101176.06;109901;1268;18878;-49
2022/08/13 07:21:17;;;;;;;;;18.67;18.67;;;;;25.03;54.34;101179.38;109894;1268;18280;-49
2022/08/13 07:23:45;;;;;;;;;19.00;17.33;;;;;25.16;53.88;101177.00;110072;1268;18688;-51
2022/08/13 07:26:12;;;;;;;;;19.33;19.33;;;;;25.26;53.58;101180.89;110167;1268;19620;-52
2022/08/13 07:28:40;;;;;;;;;18.67;17.33;;;;;25.34;53.14;101177.51;110109;1267;19614;-48
2022/08/13 07:31:07;;;;;;;;;19.00;19.00;;;;;25.39;52.86;101183.12;110036;1267;18545;-49
2022/08/13 07:33:35;;;;;;;;;19.50;19.00;;;;;25.51;52.63;101181.64;110082;1268;18678;-47
2022/08/13 07:36:02;;;;;;;;;20.00;18.00;;;;;25.57;52.72;101186.17;109955;1268;18240;-50
2022/08/13 07:38:31;;;;;;;;;20.00;19.67;;;;;25.64;52.23;101183.52;110128;1268;18872;-50
2022/08/13 07:40:59;;;;;;;;;18.00;17.33;;;;;25.63;52.13;101181.45;110031;1268;18762;-49
2022/08/13 07:43:26;;;;;;;;;17.67;17.67;;;;;25.57;52.15;101177.46;110030;1268;18215;-49
2022/08/13 07:45:54;;;;;;;;;18.33;18.00;;;;;25.58;52.28;101178.39;110042;1268;18797;-49
2022/08/13 07:48:21;;;;;;;;;18.33;17.67;;;;;25.70;52.19;101178.88;110018;1267;18807;-46
2022/08/13 07:50:49;;;;;;;;;17.33;17.33;;;;;25.79;52.05;101187.98;110024;1267;18231;-49
2022/08/13 07:53:17;;;;;;;;;16.67;16.00;;;;;25.73;51.81;101187.20;109892;1268;19066;-50
2022/08/13 07:55:44;;;;;;;;;18.33;17.33;;;;;25.68;52.01;101184.40;109967;1268;19067;-53
2022/08/13 07:58:12;;;;;;;;;17.00;17.00;;;;;25.65;52.18;101182.48;109988;1268;18503;-46
2022/08/13 08:00:39;;;;;;;;;18.00;17.00;;;;;25.67;52.39;101180.49;109997;1268;22003;-50
2022/08/13 08:03:06;;;;;;;;;18.00;17.67;;;;;25.74;52.36;101179.86;110053;1268;18871;-48
2022/08/13 08:05:35;;;;;;;;;19.00;18.67;;;;;25.78;52.69;101174.53;109284;1272;18332;-48
2022/08/13 08:08:04;;;;;;;;;15.67;15.67;;;;;25.81;53.04;101173.93;109615;1270;19016;-49
2022/08/13 08:10:31;;;;;;;;;18.00;18.00;;;;;25.83;52.98;101173.48;109399;1270;18729;-51
2022/08/13 08:13:00;;;;;;;;;17.33;16.33;;;;;25.86;52.59;101172.81;109572;1270;21242;-47
2022/08/13 08:15:27;;;;;;;;;22.00;20.00;;;;;25.80;52.84;101175.94;109605;1270;18829;-49
2022/08/13 08:17:54;;;;;;;;;22.00;18.67;;;;;25.78;52.68;101174.15;109582;1270;20077;-49
2022/08/13 08:20:22;;;;;;;;;21.00;18.50;;;;;25.91;52.65;101168.41;109581;1270;18246;-50
2022/08/13 08:22:50;;;;;;;;;19.33;19.33;;;;;25.82;52.59;101164.68;109553;1270;22288;-52
2022/08/13 08:25:17;;;;;;;;;20.67;18.33;;;;;25.96;52.13;101162.61;109492;1270;18789;-45
2022/08/13 08:27:44;;;;;;;;;18.33;17.00;;;;;26.01;52.15;101154.28;109565;1270;18262;-48
2022/08/13 08:30:12;;;;;;;;;17.33;17.33;;;;;26.07;51.91;101145.20;109568;1270;21898;-49
2022/08/13 08:32:39;;;;;;;;;16.00;16.00;;;;;26.07;52.12;101143.79;109558;1270;18670;-49
2022/08/13 08:35:06;;;;;;;;;17.00;16.00;;;;;26.07;52.02;101140.46;109517;1270;18788;-49
2022/08/13 08:43:00;;;;;;;;;18.00;17.00;;;;;26.05;52.21;101149.73;108866;1274;20978;-49
2022/08/13 08:45:28;;;;;;;;;18.00;18.00;;;;;26.06;51.84;101148.73;108851;1274;18574;-49
2022/08/13 08:47:55;;;;;;;;;17.00;15.67;;;;;26.02;52.01;101146.98;108803;1274;18697;-48
2022/08/13 08:50:24;;;;;;;;;17.33;17.33;;;;;26.04;51.80;101153.45;108848;1274;19144;-49
2022/08/13 08:55:36;;;;;;;;;15.00;15.00;;;;;26.07;51.53;101153.89;108860;1274;18666;-49
2022/08/13 08:58:04;;;;;;;;;18.00;17.67;;;;;26.10;51.20;101155.45;108867;1273;18209;-49
2022/08/13 09:00:32;;;;;;;;;20.00;18.00;;;;;26.17;51.05;101156.37;108817;1274;19471;-49
2022/08/13 09:02:59;;;;;;;;;16.00;16.00;;;;;26.16;50.99;101160.55;108813;1274;18764;-49
2022/08/13 09:05:27;;;;;;;;;19.67;18.00;;;;;26.15;50.86;101162.70;108756;1274;19891;-49
2022/08/13 09:07:54;;;;;;;;;16.00;15.50;;;;;26.15;50.88;101155.80;108753;1274;22027;-47
2022/08/13 09:10:21;;;;;;;;;17.00;15.67;;;;;26.18;50.85;101156.98;108849;1274;18784;-48
2022/08/13 09:12:50;;;;;;;;;21.00;18.33;;;;;26.14;50.87;101160.62;108882;1274;18275;-49
2022/08/13 09:15:21;;;;;;;;;17.00;16.67;;;;;26.17;51.03;101164.61;108878;1273;22225;-48
2022/08/13 09:17:49;;;;;;;;;18.67;18.33;;;;;26.13;51.26;101162.05;109113;1271;18782;-50
2022/08/13 09:20:16;;;;;;;;;19.67;18.67;;;;;26.17;51.25;101169.21;109649;1270;18253;-50
2022/08/13 09:22:44;;;;;;;;;21.00;19.00;;;;;26.18;51.55;101168.58;109606;1270;18814;-49
2022/08/13 09:25:11;;;;;;;;;18.33;18.00;;;;;26.18;51.73;101176.10;109550;1269;18802;-47
2022/08/13 09:27:38;;;;;;;;;21.50;19.00;;;;;26.19;51.96;101180.04;109573;1270;18509;-48
2022/08/13 09:30:06;;;;;;;;;18.00;18.00;;;;;26.18;51.99;101178.64;109587;1270;21000;-48
2022/08/13 09:32:33;;;;;;;;;18.00;18.00;;;;;26.10;52.02;101177.13;109600;1270;18827;-48
2022/08/13 09:35:00;;;;;;;;;19.00;18.00;;;;;26.13;52.18;101176.54;109570;1271;20697;-48
2022/08/13 09:37:28;;;;;;;;;21.00;19.00;;;;;26.13;52.43;101171.89;109538;1270;19375;-48
2022/08/13 09:39:55;;;;;;;;;19.00;18.00;;;;;26.12;52.61;101175.70;109294;1270;18873;-48
2022/08/13 09:42:23;;;;;;;;;19.67;18.33;;;;;26.14;52.90;101179.71;109506;1270;21990;-49
2022/08/13 09:44:50;;;;;;;;;22.00;22.00;;;;;26.25;52.93;101199.36;109505;1270;19277;-47
2022/08/13 09:47:17;;;;;;;;;19.00;19.00;;;;;26.20;53.46;101189.05;109492;1270;22167;-51
2022/08/13 09:49:48;;;;;;;;;23.50;23.00;;;;;26.21;53.62;101189.10;109524;1270;18953;-49
2022/08/13 09:52:15;;;;;;;;;22.33;21.00;;;;;26.21;54.01;101183.91;109548;1270;18764;-48
2022/08/13 09:54:42;;;;;;;;;25.50;23.00;;;;;26.29;54.06;101177.36;109512;1270;18735;-48
2022/08/13 09:57:10;;;;;;;;;24.50;22.50;;;;;26.23;54.10;101172.58;109542;1270;18319;-47
2022/08/13 09:59:37;;;;;;;;;23.33;22.00;;;;;26.37;54.06;101168.73;109568;1270;18662;-49
2022/08/13 10:02:05;;;;;;;;;24.00;23.00;;;;;26.45;54.14;101168.71;109498;1269;18698;-54
2022/08/13 10:04:32;;;;;;;;;24.00;23.50;;;;;26.49;53.79;101168.46;109434;1270;24300;-49
2022/08/13 10:07:00;;;;;;;;;25.00;24.00;;;;;26.34;54.04;101152.73;109372;1270;18937;-48
2022/08/13 10:09:27;;;;;;;;;22.33;21.33;;;;;26.39;54.19;101152.01;109424;1270;22085;-47
2022/08/13 10:11:54;;;;;;;;;26.33;25.00;;;;;26.43;54.07;101148.77;109529;1271;18401;-48
2022/08/13 10:14:22;;;;;;;;;26.33;25.00;;;;;26.42;53.90;101144.29;109594;1270;21427;-49
2022/08/13 10:16:49;;;;;;;;;29.33;25.67;;;;;26.45;53.77;101138.05;109550;1270;20316;-49
2022/08/13 10:19:16;;;;;;;;;37.33;34.67;;;;;26.54;53.82;101137.20;109528;1270;18536;-48
2022/08/13 10:21:44;;;;;;;;;44.50;38.50;;;;;26.55;53.86;101137.62;109524;1270;18873;-49
2022/08/13 10:24:11;;;;;;;;;41.67;37.67;;;;;26.63;53.60;101136.22;109572;1271;18729;-49
2022/08/13 10:26:40;;;;;;;;;32.00;29.00;;;;;26.62;53.78;101135.20;109433;1270;18251;-48
2022/08/13 10:29:08;;;;;;;;;28.00;28.00;;;;;26.61;53.55;101129.06;109524;1270;18727;-50
2022/08/13 10:31:35;;;;;;;;;25.00;25.00;;;;;26.58;53.81;101122.20;109523;1271;18730;-49
2022/08/13 10:34:03;;;;;;;;;27.00;25.00;;;;;26.60;53.87;101121.15;109470;1270;19401;-47
2022/08/13 10:36:31;;;;;;;;;25.67;25.00;;;;;26.68;53.61;101111.60;109497;1270;18803;-47
2022/08/13 10:38:58;;;;;;;;;23.67;21.33;;;;;26.72;53.80;101110.02;109533;1270;18720;-50
2022/08/13 10:41:25;;;;;;;;;27.33;25.67;;;;;26.68;53.59;101110.55;109487;1270;18509;-50
2022/08/13 10:43:59;;;;;;;;;28.50;26.50;;;;;26.65;53.76;101106.28;109585;1270;20147;-48
2022/08/13 10:46:26;;;;;;;;;27.00;25.00;;;;;26.59;53.95;101107.98;109519;1270;18728;-48
2022/08/13 10:48:55;;;;;;;;;25.00;24.00;;;;;26.52;53.91;101105.73;109558;1270;18208;-49
2022/08/13 10:51:23;;;;;;;;;27.00;25.00;;;;;26.48;54.17;101105.09;109511;1270;20447;-49
2022/08/13 10:53:58;;;;;;;;;25.33;24.67;;;;;26.43;54.22;101102.00;109582;1270;18811;-49
2022/08/13 10:56:26;;;;;;;;;28.67;27.33;;;;;26.40;54.50;101097.29;109529;1270;18361;-47
2022/08/13 10:58:54;;;;;;;;;24.00;24.00;;;;;26.32;54.72;101095.19;109597;1270;18689;-48
2022/08/13 11:01:24;;;;;;;;;29.00;24.00;;;;;26.35;54.52;101091.09;109443;1270;18818;-47
2022/08/13 11:03:52;;;;;;;;;26.00;25.00;;;;;26.36;54.77;101084.54;109574;1270;22018;-46
2022/08/13 11:06:20;;;;;;;;;25.00;24.00;;;;;26.43;54.88;101081.15;109613;1270;18862;-49
2022/08/13 11:08:47;;;;;;;;;24.00;24.00;;;;;26.54;54.61;101074.90;109590;1270;18761;-49
2022/08/13 11:11:15;;;;;;;;;25.00;25.00;;;;;26.38;54.80;101073.82;109593;1270;18394;-46
2022/08/13 11:13:42;;;;;;;;;31.00;26.00;;;;;26.24;55.36;101067.41;109572;1270;18666;-48
2022/08/13 11:16:56;;;;;;;;;25.33;24.00;;;;;26.38;55.07;101063.78;109560;1270;18961;-48
2022/08/13 11:18:59;;;;;;;;;24.50;24.50;;;;;26.36;55.22;101057.65;109533;1270;18304;-49
2022/08/13 11:21:26;;;;;;;;;26.00;25.50;;;;;26.53;54.88;101054.81;109510;1270;22185;-50
2022/08/13 11:23:54;;;;;;;;;25.00;24.00;;;;;26.57;54.68;101050.41;109463;1270;21783;-47
2022/08/13 11:26:21;;;;;;;;;32.67;30.00;;;;;26.62;54.38;101047.48;109517;1270;18417;-52